Vasteras, Sweden

6:17 AM CET on February 10, 2016 (GMT +0100)
Vasteras City Centre | | Change Station
CLOSE
Current Station
Personal Weather Station
Location: Västerås, VäSTMANLANDS LäN
Elevation: 62 ft
Nearby Weather Stations

Elev 62 ft 59.61 °N, 16.55 °E | Updated 6 seconds ago

Clear
Clear
36.9 °F
Feels Like 37 °F
N
0.0
Wind Variable Wind from SE
Gusts 0.0 mph

Today
High -- | Low -- °F
--% Chance of Precip.
Yesterday
High -- | Low -- °F
Precip. -- in
Pressure 29.06 in
Visibility 6.2 miles
Clouds
Windchill 37 °F
Dew Point 32 °F
Humidity 84%
Rainfall 0.00 in
Snow Depth Not available.
7:44 AM 4:31 PM
Waxing Crescent, 4% visible
METAR ESOW 100450Z AUTO 07004KT 040V100 9999 NCD 02/01 Q0984
Pressure 29.06 in
Visibility 6.2 miles
Clouds
Windchill 37 °F
Dew Point 32 °F
Humidity 84%
Rainfall 0.00 in
Snow Depth Not available.
7:44 AM 4:31 PM
Waxing Crescent, 4% visible
METAR ESOW 100450Z AUTO 07004KT 040V100 9999 NCD 02/01 Q0984

10-Day Weather Forecast

Almanac

Astronomy

Feb. 10, 2016 Rise Set
Actual Time
Civil Twilight
Nautical Twilight
Astronomical Twilight
Moon
Length of Visible Light
Length of Day
Tomorrow will be .
, % of the Moon is Illuminated

Today's Extremes

Country Highs Country Lows

Community

WunderPhotos

Upload Photos

1,891,818 photos uploaded!

WunderBlog® & News

Nearby

Air Quality

  Air Quality AQ Index Pollutant
Not available.

Snow Depth

Station Depth Elevation

Earthquake Activity

City Distance Mag. Time & Date
Minimum magnitude displayed is 2.5.

Coastal Water Temperatures

Place Temperature

Stations

Nearby Weather Stations

Station Location Temp. Windchill Dew Point Humidity Wind Precip. Elev Updated Type